Terminal Aerodrome Forecast
Issued by NWS Wilmington, NC

Home | Current Version | Previous Version | Text Only | Print | Product List | Glossary On
Versions: 1 2 3 4 5 6 7 8 9 10 11 12
000
FTUS42 KILM 030520
TAFFLO
TAF
KFLO 030520Z 0306/0406 VRB03KT 5SM BR SKC
      TEMPO 0308/0312 00000KT 2SM BR
     FM031400 13005KT P6SM SKC
     FM032000 16008KT P6SM SKC
     FM040100 18004KT P6SM SKC=

USA.gov is the U.S. government's official web portal to all federal, state and local government web resources and services.